KMDD/MDD METAR and TAF weather

Enter ICAO airport designator
Station Type Date Time Source
KMDD METAR 2024/06/16 09:35 UTC NOAA

KMDD 160935Z AUTO 04010KT 10SM 26/14 A2989 RMK AO2 LTG DSNT NE T02620144


Station Type Date Time Source
KMDD Decoded METAR 2024/06/16 09:35 UTC NOAA

Midland, Midland Airpark, TX, United States (KMDD) 32-02-11N 102-06-03W
Jun 16, 2024 - 05:35 AM EDT / 2024.06.16 0935 UTC
Wind: from the NE (040 degrees) at 12 MPH (10 KT):0
Visibility: 10 mile(s):0
Weather: Lightning observed
Temperature: 79.2 F (26.2 C)
Dew Point: 57.9 F (14.4 C)
Relative Humidity: 48%
Pressure (altimeter): 29.89 in. Hg (1012 hPa)
ob: KMDD 160935Z AUTO 04010KT 10SM 26/14 A2989 RMK AO2 LTG DSNT NE T02620144
cycle: 9

Station Type Date Time Source
KMDD TAF UTC NOAA

Error!

Example: see airport list